sensor_id;sensor_type;location;lat;lon;timestamp;P1;durP1;ratioP1;P2;durP2;ratioP2
8823;SDS011;4448;50.904;4.694;2022-10-16T00:01:28;0.83;;;0.83;;
8823;SDS011;4448;50.904;4.694;2022-10-16T00:03:56;0.60;;;0.60;;
8823;SDS011;4448;50.904;4.694;2022-10-16T00:06:23;0.70;;;0.70;;
8823;SDS011;4448;50.904;4.694;2022-10-16T00:08:49;2.20;;;0.87;;
8823;SDS011;4448;50.904;4.694;2022-10-16T00:11:18;0.60;;;0.60;;
8823;SDS011;4448;50.904;4.694;2022-10-16T00:13:46;0.93;;;0.70;;
8823;SDS011;4448;50.904;4.694;2022-10-16T00:16:13;1.80;;;0.63;;
8823;SDS011;4448;50.904;4.694;2022-10-16T00:18:40;2.53;;;1.17;;
8823;SDS011;4448;50.904;4.694;2022-10-16T00:21:10;0.87;;;0.80;;
8823;SDS011;4448;50.904;4.694;2022-10-16T00:23:38;0.87;;;0.50;;
8823;SDS011;4448;50.904;4.694;2022-10-16T00:26:05;0.50;;;0.43;;
8823;SDS011;4448;50.904;4.694;2022-10-16T00:28:36;0.63;;;0.37;;
8823;SDS011;4448;50.904;4.694;2022-10-16T00:31:03;0.93;;;0.80;;
8823;SDS011;4448;50.904;4.694;2022-10-16T00:33:32;1.60;;;0.80;;
8823;SDS011;4448;50.904;4.694;2022-10-16T00:35:59;1.30;;;0.90;;
8823;SDS011;4448;50.904;4.694;2022-10-16T00:38:25;0.50;;;0.50;;
8823;SDS011;4448;50.904;4.694;2022-10-16T00:40:51;0.43;;;0.43;;
8823;SDS011;4448;50.904;4.694;2022-10-16T00:45:58;0.83;;;0.83;;
8823;SDS011;4448;50.904;4.694;2022-10-16T00:48:24;0.47;;;0.47;;
8823;SDS011;4448;50.904;4.694;2022-10-16T00:50:50;1.37;;;1.03;;
8823;SDS011;4448;50.904;4.694;2022-10-16T00:53:17;0.60;;;0.60;;
8823;SDS011;4448;50.904;4.694;2022-10-16T00:55:42;0.40;;;0.40;;
8823;SDS011;4448;50.904;4.694;2022-10-16T00:58:08;0.23;;;0.23;;
8823;SDS011;4448;50.904;4.694;2022-10-16T01:00:34;0.57;;;0.57;;
8823;SDS011;4448;50.904;4.694;2022-10-16T01:03:01;0.70;;;0.70;;
8823;SDS011;4448;50.904;4.694;2022-10-16T01:05:33;0.40;;;0.40;;
8823;SDS011;4448;50.904;4.694;2022-10-16T01:08:08;0.40;;;0.40;;
8823;SDS011;4448;50.904;4.694;2022-10-16T01:10:46;1.30;;;0.87;;
8823;SDS011;4448;50.904;4.694;2022-10-16T01:13:31;0.70;;;0.70;;
8823;SDS011;4448;50.904;4.694;2022-10-16T01:16:07;1.80;;;0.70;;
8823;SDS011;4448;50.904;4.694;2022-10-16T01:19:31;1.33;;;0.90;;
8823;SDS011;4448;50.904;4.694;2022-10-16T01:21:47;0.83;;;0.67;;
8823;SDS011;4448;50.904;4.694;2022-10-16T01:29:37;0.70;;;0.70;;
8823;SDS011;4448;50.904;4.694;2022-10-16T01:32:08;1.30;;;0.97;;
8823;SDS011;4448;50.904;4.694;2022-10-16T01:34:44;3.97;;;0.80;;
8823;SDS011;4448;50.904;4.694;2022-10-16T01:37:24;0.60;;;0.60;;
8823;SDS011;4448;50.904;4.694;2022-10-16T01:40:05;0.60;;;0.60;;
8823;SDS011;4448;50.904;4.694;2022-10-16T01:42:35;0.57;;;0.57;;
8823;SDS011;4448;50.904;4.694;2022-10-16T01:45:12;1.50;;;1.20;;
8823;SDS011;4448;50.904;4.694;2022-10-16T01:47:39;1.10;;;0.60;;
8823;SDS011;4448;50.904;4.694;2022-10-16T01:50:09;1.80;;;0.97;;
8823;SDS011;4448;50.904;4.694;2022-10-16T01:52:37;0.80;;;0.80;;
8823;SDS011;4448;50.904;4.694;2022-10-16T01:55:05;0.77;;;0.77;;
8823;SDS011;4448;50.904;4.694;2022-10-16T01:57:33;1.37;;;1.00;;
8823;SDS011;4448;50.904;4.694;2022-10-16T02:00:05;1.30;;;1.07;;
8823;SDS011;4448;50.904;4.694;2022-10-16T02:02:34;4.70;;;1.10;;
8823;SDS011;4448;50.904;4.694;2022-10-16T02:05:05;1.37;;;0.90;;
8823;SDS011;4448;50.904;4.694;2022-10-16T02:07:52;1.10;;;1.00;;
8823;SDS011;4448;50.904;4.694;2022-10-16T02:10:18;0.80;;;0.80;;
8823;SDS011;4448;50.904;4.694;2022-10-16T02:12:49;1.83;;;0.93;;
8823;SDS011;4448;50.904;4.694;2022-10-16T02:15:20;0.73;;;0.73;;
8823;SDS011;4448;50.904;4.694;2022-10-16T02:17:46;19.53;;;1.20;;
8823;SDS011;4448;50.904;4.694;2022-10-16T02:20:12;0.47;;;0.47;;
8823;SDS011;4448;50.904;4.694;2022-10-16T02:22:39;1.43;;;0.57;;
8823;SDS011;4448;50.904;4.694;2022-10-16T02:25:17;1.23;;;0.60;;
8823;SDS011;4448;50.904;4.694;2022-10-16T02:28:19;0.60;;;0.60;;
8823;SDS011;4448;50.904;4.694;2022-10-16T02:30:46;3.10;;;1.30;;
8823;SDS011;4448;50.904;4.694;2022-10-16T02:33:17;3.70;;;0.90;;
8823;SDS011;4448;50.904;4.694;2022-10-16T02:35:44;0.70;;;0.70;;
8823;SDS011;4448;50.904;4.694;2022-10-16T02:38:13;0.97;;;0.90;;
8823;SDS011;4448;50.904;4.694;2022-10-16T02:40:41;1.33;;;0.90;;
8823;SDS011;4448;50.904;4.694;2022-10-16T02:43:08;1.20;;;1.10;;
8823;SDS011;4448;50.904;4.694;2022-10-16T02:45:35;0.50;;;0.50;;
8823;SDS011;4448;50.904;4.694;2022-10-16T02:48:01;0.73;;;0.73;;
8823;SDS011;4448;50.904;4.694;2022-10-16T02:50:27;0.97;;;0.93;;
8823;SDS011;4448;50.904;4.694;2022-10-16T02:52:53;2.73;;;1.03;;
8823;SDS011;4448;50.904;4.694;2022-10-16T02:55:19;0.77;;;0.77;;
8823;SDS011;4448;50.904;4.694;2022-10-16T02:57:45;0.80;;;0.80;;
8823;SDS011;4448;50.904;4.694;2022-10-16T03:00:12;1.33;;;1.00;;
8823;SDS011;4448;50.904;4.694;2022-10-16T03:02:39;2.07;;;1.03;;
8823;SDS011;4448;50.904;4.694;2022-10-16T03:05:05;0.73;;;0.73;;
8823;SDS011;4448;50.904;4.694;2022-10-16T03:07:32;1.43;;;1.00;;
8823;SDS011;4448;50.904;4.694;2022-10-16T03:09:57;0.77;;;0.77;;
8823;SDS011;4448;50.904;4.694;2022-10-16T03:12:25;1.07;;;0.97;;
8823;SDS011;4448;50.904;4.694;2022-10-16T03:14:51;0.60;;;0.60;;
8823;SDS011;4448;50.904;4.694;2022-10-16T03:17:17;0.30;;;0.30;;
8823;SDS011;4448;50.904;4.694;2022-10-16T03:19:44;0.80;;;0.80;;
8823;SDS011;4448;50.904;4.694;2022-10-16T03:22:09;0.90;;;0.90;;
8823;SDS011;4448;50.904;4.694;2022-10-16T03:24:35;0.60;;;0.60;;
8823;SDS011;4448;50.904;4.694;2022-10-16T03:27:01;0.60;;;0.60;;
8823;SDS011;4448;50.904;4.694;2022-10-16T03:29:27;1.30;;;1.20;;
8823;SDS011;4448;50.904;4.694;2022-10-16T03:31:54;0.77;;;0.70;;
8823;SDS011;4448;50.904;4.694;2022-10-16T03:34:20;1.43;;;0.93;;
8823;SDS011;4448;50.904;4.694;2022-10-16T03:36:46;0.80;;;0.80;;
8823;SDS011;4448;50.904;4.694;2022-10-16T03:39:11;1.90;;;1.07;;
8823;SDS011;4448;50.904;4.694;2022-10-16T03:41:37;3.77;;;0.70;;
8823;SDS011;4448;50.904;4.694;2022-10-16T03:44:03;1.47;;;1.23;;
8823;SDS011;4448;50.904;4.694;2022-10-16T03:46:28;1.30;;;1.20;;
8823;SDS011;4448;50.904;4.694;2022-10-16T03:48:54;2.10;;;1.27;;
8823;SDS011;4448;50.904;4.694;2022-10-16T03:51:20;0.70;;;0.70;;
8823;SDS011;4448;50.904;4.694;2022-10-16T03:53:46;2.83;;;1.53;;
8823;SDS011;4448;50.904;4.694;2022-10-16T03:56:11;1.20;;;1.10;;
8823;SDS011;4448;50.904;4.694;2022-10-16T03:58:37;3.33;;;1.13;;
8823;SDS011;4448;50.904;4.694;2022-10-16T04:01:03;1.27;;;1.10;;
8823;SDS011;4448;50.904;4.694;2022-10-16T04:03:29;0.70;;;0.70;;
8823;SDS011;4448;50.904;4.694;2022-10-16T04:05:55;4.03;;;1.40;;
8823;SDS011;4448;50.904;4.694;2022-10-16T04:08:21;2.03;;;1.33;;
8823;SDS011;4448;50.904;4.694;2022-10-16T04:10:47;1.07;;;1.07;;
8823;SDS011;4448;50.904;4.694;2022-10-16T04:13:13;2.93;;;1.20;;
8823;SDS011;4448;50.904;4.694;2022-10-16T04:15:39;0.83;;;0.83;;
8823;SDS011;4448;50.904;4.694;2022-10-16T04:18:05;0.57;;;0.53;;
8823;SDS011;4448;50.904;4.694;2022-10-16T04:20:31;1.57;;;0.93;;
8823;SDS011;4448;50.904;4.694;2022-10-16T04:22:56;0.63;;;0.63;;
8823;SDS011;4448;50.904;4.694;2022-10-16T04:25:22;1.03;;;0.90;;
8823;SDS011;4448;50.904;4.694;2022-10-16T04:27:49;1.50;;;1.40;;
8823;SDS011;4448;50.904;4.694;2022-10-16T04:30:15;0.90;;;0.80;;
8823;SDS011;4448;50.904;4.694;2022-10-16T04:32:40;1.00;;;0.90;;
8823;SDS011;4448;50.904;4.694;2022-10-16T04:35:06;2.20;;;1.33;;
8823;SDS011;4448;50.904;4.694;2022-10-16T04:37:32;1.60;;;1.40;;
8823;SDS011;4448;50.904;4.694;2022-10-16T04:39:58;1.10;;;0.87;;
8823;SDS011;4448;50.904;4.694;2022-10-16T04:42:24;1.70;;;0.73;;
8823;SDS011;4448;50.904;4.694;2022-10-16T04:44:49;1.03;;;0.83;;
8823;SDS011;4448;50.904;4.694;2022-10-16T04:47:16;0.80;;;0.80;;
8823;SDS011;4448;50.904;4.694;2022-10-16T04:49:42;0.93;;;0.37;;
8823;SDS011;4448;50.904;4.694;2022-10-16T04:52:07;0.87;;;0.87;;
8823;SDS011;4448;50.904;4.694;2022-10-16T04:54:34;1.70;;;1.43;;
8823;SDS011;4448;50.904;4.694;2022-10-16T04:57:00;1.63;;;1.47;;
8823;SDS011;4448;50.904;4.694;2022-10-16T04:59:26;2.07;;;1.07;;
8823;SDS011;4448;50.904;4.694;2022-10-16T05:01:52;2.53;;;1.07;;
8823;SDS011;4448;50.904;4.694;2022-10-16T05:04:18;3.87;;;1.33;;
8823;SDS011;4448;50.904;4.694;2022-10-16T05:06:44;2.23;;;1.10;;
8823;SDS011;4448;50.904;4.694;2022-10-16T05:09:11;1.60;;;1.50;;
8823;SDS011;4448;50.904;4.694;2022-10-16T05:11:37;1.33;;;0.77;;
8823;SDS011;4448;50.904;4.694;2022-10-16T05:14:02;1.30;;;1.03;;
8823;SDS011;4448;50.904;4.694;2022-10-16T05:16:29;3.93;;;0.97;;
8823;SDS011;4448;50.904;4.694;2022-10-16T05:18:55;1.63;;;1.20;;
8823;SDS011;4448;50.904;4.694;2022-10-16T05:21:22;2.33;;;2.13;;
8823;SDS011;4448;50.904;4.694;2022-10-16T05:23:48;0.87;;;0.80;;
8823;SDS011;4448;50.904;4.694;2022-10-16T05:26:15;1.37;;;1.27;;
8823;SDS011;4448;50.904;4.694;2022-10-16T05:28:42;3.83;;;1.93;;
8823;SDS011;4448;50.904;4.694;2022-10-16T05:31:10;1.50;;;1.40;;
8823;SDS011;4448;50.904;4.694;2022-10-16T05:33:39;1.50;;;1.40;;
8823;SDS011;4448;50.904;4.694;2022-10-16T05:36:05;3.60;;;2.00;;
8823;SDS011;4448;50.904;4.694;2022-10-16T05:38:33;4.37;;;1.93;;
8823;SDS011;4448;50.904;4.694;2022-10-16T05:40:59;1.47;;;1.37;;
8823;SDS011;4448;50.904;4.694;2022-10-16T05:43:24;4.33;;;1.73;;
8823;SDS011;4448;50.904;4.694;2022-10-16T05:48:22;1.00;;;1.00;;
8823;SDS011;4448;50.904;4.694;2022-10-16T05:50:48;1.00;;;1.00;;
8823;SDS011;4448;50.904;4.694;2022-10-16T05:53:21;1.30;;;1.20;;
8823;SDS011;4448;50.904;4.694;2022-10-16T05:55:53;3.43;;;1.37;;
8823;SDS011;4448;50.904;4.694;2022-10-16T05:58:20;2.67;;;1.70;;
8823;SDS011;4448;50.904;4.694;2022-10-16T06:00:53;1.03;;;1.00;;
8823;SDS011;4448;50.904;4.694;2022-10-16T06:03:22;1.17;;;0.90;;
8823;SDS011;4448;50.904;4.694;2022-10-16T06:05:48;1.57;;;1.30;;
8823;SDS011;4448;50.904;4.694;2022-10-16T06:08:14;2.33;;;1.60;;
8823;SDS011;4448;50.904;4.694;2022-10-16T06:10:40;1.40;;;0.67;;
8823;SDS011;4448;50.904;4.694;2022-10-16T06:13:06;1.13;;;1.00;;
8823;SDS011;4448;50.904;4.694;2022-10-16T06:15:31;3.90;;;1.73;;
8823;SDS011;4448;50.904;4.694;2022-10-16T06:17:57;2.97;;;1.70;;
8823;SDS011;4448;50.904;4.694;2022-10-16T06:20:23;1.43;;;1.20;;
8823;SDS011;4448;50.904;4.694;2022-10-16T06:22:48;3.23;;;0.70;;
8823;SDS011;4448;50.904;4.694;2022-10-16T06:25:14;1.50;;;1.40;;
8823;SDS011;4448;50.904;4.694;2022-10-16T06:27:40;6.13;;;2.00;;
8823;SDS011;4448;50.904;4.694;2022-10-16T06:30:06;1.00;;;1.00;;
8823;SDS011;4448;50.904;4.694;2022-10-16T06:32:32;3.13;;;1.60;;
8823;SDS011;4448;50.904;4.694;2022-10-16T06:34:58;1.60;;;1.17;;
8823;SDS011;4448;50.904;4.694;2022-10-16T06:37:23;3.03;;;1.83;;
8823;SDS011;4448;50.904;4.694;2022-10-16T06:39:50;1.17;;;1.07;;
8823;SDS011;4448;50.904;4.694;2022-10-16T06:42:17;8.23;;;1.50;;
8823;SDS011;4448;50.904;4.694;2022-10-16T06:44:44;2.90;;;2.17;;
8823;SDS011;4448;50.904;4.694;2022-10-16T06:47:09;2.43;;;1.83;;
8823;SDS011;4448;50.904;4.694;2022-10-16T06:49:35;1.50;;;1.33;;
8823;SDS011;4448;50.904;4.694;2022-10-16T06:52:01;3.47;;;1.53;;
8823;SDS011;4448;50.904;4.694;2022-10-16T06:54:27;0.83;;;0.83;;
8823;SDS011;4448;50.904;4.694;2022-10-16T06:56:54;1.43;;;1.33;;
8823;SDS011;4448;50.904;4.694;2022-10-16T06:59:23;1.23;;;1.13;;
8823;SDS011;4448;50.904;4.694;2022-10-16T07:01:48;2.20;;;1.50;;
8823;SDS011;4448;50.904;4.694;2022-10-16T07:04:14;0.93;;;0.80;;
8823;SDS011;4448;50.904;4.694;2022-10-16T07:06:40;0.73;;;0.73;;
8823;SDS011;4448;50.904;4.694;2022-10-16T07:09:09;1.17;;;1.07;;
8823;SDS011;4448;50.904;4.694;2022-10-16T07:11:37;2.20;;;1.70;;
8823;SDS011;4448;50.904;4.694;2022-10-16T07:14:03;1.50;;;1.40;;
8823;SDS011;4448;50.904;4.694;2022-10-16T07:16:30;0.60;;;0.60;;
8823;SDS011;4448;50.904;4.694;2022-10-16T07:18:58;0.50;;;0.50;;
8823;SDS011;4448;50.904;4.694;2022-10-16T07:21:29;3.90;;;0.97;;
8823;SDS011;4448;50.904;4.694;2022-10-16T07:24:00;1.20;;;1.10;;
8823;SDS011;4448;50.904;4.694;2022-10-16T07:26:26;2.70;;;1.47;;
8823;SDS011;4448;50.904;4.694;2022-10-16T07:28:53;0.70;;;0.70;;
8823;SDS011;4448;50.904;4.694;2022-10-16T07:31:21;1.50;;;0.50;;
8823;SDS011;4448;50.904;4.694;2022-10-16T07:33:49;0.80;;;0.80;;
8823;SDS011;4448;50.904;4.694;2022-10-16T07:36:16;0.50;;;0.50;;
8823;SDS011;4448;50.904;4.694;2022-10-16T07:38:43;5.00;;;1.27;;
8823;SDS011;4448;50.904;4.694;2022-10-16T07:41:10;4.90;;;2.23;;
8823;SDS011;4448;50.904;4.694;2022-10-16T07:43:38;4.77;;;1.03;;
8823;SDS011;4448;50.904;4.694;2022-10-16T07:46:04;5.00;;;1.57;;
8823;SDS011;4448;50.904;4.694;2022-10-16T07:48:30;1.27;;;0.80;;
8823;SDS011;4448;50.904;4.694;2022-10-16T07:51:00;1.60;;;1.27;;
8823;SDS011;4448;50.904;4.694;2022-10-16T07:53:28;0.90;;;0.90;;
8823;SDS011;4448;50.904;4.694;2022-10-16T07:55:57;1.13;;;0.83;;
8823;SDS011;4448;50.904;4.694;2022-10-16T07:58:24;2.30;;;1.37;;
8823;SDS011;4448;50.904;4.694;2022-10-16T08:00:50;2.33;;;0.93;;
8823;SDS011;4448;50.904;4.694;2022-10-16T08:03:16;0.97;;;0.80;;
8823;SDS011;4448;50.904;4.694;2022-10-16T08:05:41;2.67;;;0.80;;
8823;SDS011;4448;50.904;4.694;2022-10-16T08:08:10;0.63;;;0.63;;
8823;SDS011;4448;50.904;4.694;2022-10-16T08:10:38;1.47;;;1.37;;
8823;SDS011;4448;50.904;4.694;2022-10-16T08:13:04;0.77;;;0.77;;
8823;SDS011;4448;50.904;4.694;2022-10-16T08:15:29;0.30;;;0.30;;
8823;SDS011;4448;50.904;4.694;2022-10-16T08:17:59;1.60;;;1.00;;
8823;SDS011;4448;50.904;4.694;2022-10-16T08:20:27;0.53;;;0.53;;
8823;SDS011;4448;50.904;4.694;2022-10-16T08:22:54;1.03;;;0.60;;
8823;SDS011;4448;50.904;4.694;2022-10-16T08:25:21;1.70;;;0.67;;
8823;SDS011;4448;50.904;4.694;2022-10-16T08:27:47;0.60;;;0.60;;
8823;SDS011;4448;50.904;4.694;2022-10-16T08:30:14;0.60;;;0.60;;
8823;SDS011;4448;50.904;4.694;2022-10-16T08:32:41;0.30;;;0.30;;
8823;SDS011;4448;50.904;4.694;2022-10-16T08:35:07;1.53;;;0.70;;
8823;SDS011;4448;50.904;4.694;2022-10-16T08:37:34;0.97;;;0.77;;
8823;SDS011;4448;50.904;4.694;2022-10-16T08:40:00;2.40;;;1.20;;
8823;SDS011;4448;50.904;4.694;2022-10-16T08:50:26;0.57;;;0.57;;
8823;SDS011;4448;50.904;4.694;2022-10-16T08:52:54;1.30;;;0.77;;
8823;SDS011;4448;50.904;4.694;2022-10-16T08:58:18;0.60;;;0.57;;
8823;SDS011;4448;50.904;4.694;2022-10-16T09:00:46;0.80;;;0.70;;
8823;SDS011;4448;50.904;4.694;2022-10-16T09:08:53;0.40;;;0.40;;
8823;SDS011;4448;50.904;4.694;2022-10-16T09:22:55;2.47;;;0.87;;
8823;SDS011;4448;50.904;4.694;2022-10-16T09:25:47;1.27;;;0.97;;
8823;SDS011;4448;50.904;4.694;2022-10-16T09:28:14;0.30;;;0.30;;
8823;SDS011;4448;50.904;4.694;2022-10-16T09:30:41;0.40;;;0.40;;
8823;SDS011;4448;50.904;4.694;2022-10-16T09:33:07;2.57;;;0.60;;
8823;SDS011;4448;50.904;4.694;2022-10-16T09:35:39;1.13;;;0.70;;
8823;SDS011;4448;50.904;4.694;2022-10-16T09:38:07;0.30;;;0.30;;
8823;SDS011;4448;50.904;4.694;2022-10-16T09:43:12;0.17;;;0.17;;
8823;SDS011;4448;50.904;4.694;2022-10-16T09:46:01;5.70;;;0.80;;
8823;SDS011;4448;50.904;4.694;2022-10-16T09:48:47;4.60;;;0.73;;
8823;SDS011;4448;50.904;4.694;2022-10-16T09:51:23;1.90;;;0.80;;
8823;SDS011;4448;50.904;4.694;2022-10-16T09:54:01;2.87;;;0.70;;
8823;SDS011;4448;50.904;4.694;2022-10-16T09:56:33;2.73;;;0.83;;
8823;SDS011;4448;50.904;4.694;2022-10-16T09:59:14;1.43;;;0.40;;
8823;SDS011;4448;50.904;4.694;2022-10-16T10:01:41;1.03;;;0.63;;
8823;SDS011;4448;50.904;4.694;2022-10-16T10:04:13;0.40;;;0.40;;
8823;SDS011;4448;50.904;4.694;2022-10-16T10:06:46;0.40;;;0.40;;
8823;SDS011;4448;50.904;4.694;2022-10-16T10:09:17;2.10;;;0.60;;
8823;SDS011;4448;50.904;4.694;2022-10-16T10:11:57;0.73;;;0.40;;
8823;SDS011;4448;50.904;4.694;2022-10-16T10:14:37;0.10;;;0.10;;
8823;SDS011;4448;50.904;4.694;2022-10-16T10:19:52;2.43;;;0.50;;
8823;SDS011;4448;50.904;4.694;2022-10-16T10:22:17;0.70;;;0.67;;
8823;SDS011;4448;50.904;4.694;2022-10-16T10:46:48;0.63;;;0.50;;
8823;SDS011;4448;50.904;4.694;2022-10-16T10:49:30;0.77;;;0.67;;
8823;SDS011;4448;50.904;4.694;2022-10-16T11:00:21;1.43;;;0.40;;
8823;SDS011;4448;50.904;4.694;2022-10-16T11:06:03;0.37;;;0.37;;
8823;SDS011;4448;50.904;4.694;2022-10-16T11:08:40;2.53;;;0.67;;
8823;SDS011;4448;50.904;4.694;2022-10-16T11:11:50;0.80;;;0.80;;
8823;SDS011;4448;50.904;4.694;2022-10-16T11:20:00;1.90;;;0.83;;
8823;SDS011;4448;50.904;4.694;2022-10-16T11:27:44;2.57;;;0.33;;
8823;SDS011;4448;50.904;4.694;2022-10-16T11:30:22;0.17;;;0.17;;
8823;SDS011;4448;50.904;4.694;2022-10-16T11:33:00;0.47;;;0.20;;
8823;SDS011;4448;50.904;4.694;2022-10-16T11:35:39;0.10;;;0.10;;
8823;SDS011;4448;50.904;4.694;2022-10-16T11:38:10;3.37;;;0.70;;
8823;SDS011;4448;50.904;4.694;2022-10-16T11:40:49;1.50;;;0.30;;
8823;SDS011;4448;50.904;4.694;2022-10-16T11:43:27;3.13;;;1.07;;
8823;SDS011;4448;50.904;4.694;2022-10-16T11:46:12;2.00;;;0.67;;
8823;SDS011;4448;50.904;4.694;2022-10-16T11:48:48;0.27;;;0.27;;
8823;SDS011;4448;50.904;4.694;2022-10-16T11:54:32;0.20;;;0.20;;
8823;SDS011;4448;50.904;4.694;2022-10-16T11:57:15;0.17;;;0.17;;
8823;SDS011;4448;50.904;4.694;2022-10-16T12:00:10;0.10;;;0.10;;
8823;SDS011;4448;50.904;4.694;2022-10-16T12:03:10;0.33;;;0.33;;
8823;SDS011;4448;50.904;4.694;2022-10-16T12:08:48;0.03;;;0.03;;
8823;SDS011;4448;50.904;4.694;2022-10-16T12:14:05;0.23;;;0.23;;
8823;SDS011;4448;50.904;4.694;2022-10-16T12:16:58;0.20;;;0.20;;
8823;SDS011;4448;50.904;4.694;2022-10-16T12:19:56;1.73;;;0.53;;
8823;SDS011;4448;50.904;4.694;2022-10-16T12:22:29;2.93;;;0.57;;
8823;SDS011;4448;50.904;4.694;2022-10-16T12:25:00;1.10;;;0.50;;
8823;SDS011;4448;50.904;4.694;2022-10-16T12:27:30;0.47;;;0.47;;
8823;SDS011;4448;50.904;4.694;2022-10-16T12:30:02;0.80;;;0.80;;
8823;SDS011;4448;50.904;4.694;2022-10-16T12:32:35;1.00;;;0.90;;
8823;SDS011;4448;50.904;4.694;2022-10-16T12:35:04;0.30;;;0.30;;
8823;SDS011;4448;50.904;4.694;2022-10-16T12:37:43;0.20;;;0.20;;
8823;SDS011;4448;50.904;4.694;2022-10-16T12:40:28;0.10;;;0.10;;
8823;SDS011;4448;50.904;4.694;2022-10-16T12:42:56;0.77;;;0.77;;
8823;SDS011;4448;50.904;4.694;2022-10-16T12:45:27;3.27;;;0.97;;
8823;SDS011;4448;50.904;4.694;2022-10-16T12:47:59;0.30;;;0.30;;
8823;SDS011;4448;50.904;4.694;2022-10-16T12:50:33;1.70;;;0.70;;
8823;SDS011;4448;50.904;4.694;2022-10-16T12:53:02;0.70;;;0.40;;
8823;SDS011;4448;50.904;4.694;2022-10-16T12:55:42;0.13;;;0.13;;
8823;SDS011;4448;50.904;4.694;2022-10-16T13:01:07;0.00;;;0.00;;
8823;SDS011;4448;50.904;4.694;2022-10-16T13:03:48;0.10;;;0.10;;
8823;SDS011;4448;50.904;4.694;2022-10-16T13:20:46;0.20;;;0.20;;
8823;SDS011;4448;50.904;4.694;2022-10-16T13:29:18;0.20;;;0.20;;
8823;SDS011;4448;50.904;4.694;2022-10-16T13:31:44;0.23;;;0.23;;
8823;SDS011;4448;50.904;4.694;2022-10-16T13:34:17;0.20;;;0.20;;
8823;SDS011;4448;50.904;4.694;2022-10-16T13:36:47;0.10;;;0.10;;
8823;SDS011;4448;50.904;4.694;2022-10-16T13:42:04;0.40;;;0.40;;
8823;SDS011;4448;50.904;4.694;2022-10-16T13:44:41;0.40;;;0.40;;
8823;SDS011;4448;50.904;4.694;2022-10-16T13:47:15;0.20;;;0.20;;
8823;SDS011;4448;50.904;4.694;2022-10-16T13:49:42;0.20;;;0.20;;
8823;SDS011;4448;50.904;4.694;2022-10-16T13:52:16;0.50;;;0.50;;
8823;SDS011;4448;50.904;4.694;2022-10-16T13:54:44;0.20;;;0.20;;
8823;SDS011;4448;50.904;4.694;2022-10-16T13:57:13;0.57;;;0.57;;
8823;SDS011;4448;50.904;4.694;2022-10-16T13:59:40;2.43;;;1.17;;
8823;SDS011;4448;50.904;4.694;2022-10-16T14:02:25;0.70;;;0.63;;
8823;SDS011;4448;50.904;4.694;2022-10-16T14:04:56;2.27;;;1.10;;
8823;SDS011;4448;50.904;4.694;2022-10-16T14:07:26;0.90;;;0.60;;
8823;SDS011;4448;50.904;4.694;2022-10-16T14:09:54;0.30;;;0.30;;
8823;SDS011;4448;50.904;4.694;2022-10-16T14:12:21;0.10;;;0.10;;
8823;SDS011;4448;50.904;4.694;2022-10-16T14:14:48;0.20;;;0.20;;
8823;SDS011;4448;50.904;4.694;2022-10-16T14:19:58;0.20;;;0.17;;
8823;SDS011;4448;50.904;4.694;2022-10-16T14:22:32;0.53;;;0.53;;
8823;SDS011;4448;50.904;4.694;2022-10-16T14:25:24;0.30;;;0.30;;
8823;SDS011;4448;50.904;4.694;2022-10-16T14:27:57;0.10;;;0.10;;
8823;SDS011;4448;50.904;4.694;2022-10-16T14:30:35;0.10;;;0.10;;
8823;SDS011;4448;50.904;4.694;2022-10-16T14:33:20;0.33;;;0.33;;
8823;SDS011;4448;50.904;4.694;2022-10-16T14:38:39;0.23;;;0.23;;
8823;SDS011;4448;50.904;4.694;2022-10-16T14:41:20;0.23;;;0.20;;
8823;SDS011;4448;50.904;4.694;2022-10-16T14:43:50;0.67;;;0.67;;
8823;SDS011;4448;50.904;4.694;2022-10-16T14:46:22;0.40;;;0.40;;
8823;SDS011;4448;50.904;4.694;2022-10-16T14:49:01;1.70;;;0.87;;
8823;SDS011;4448;50.904;4.694;2022-10-16T14:51:47;0.50;;;0.50;;
8823;SDS011;4448;50.904;4.694;2022-10-16T14:54:13;0.50;;;0.40;;
8823;SDS011;4448;50.904;4.694;2022-10-16T14:56:53;0.10;;;0.10;;
8823;SDS011;4448;50.904;4.694;2022-10-16T15:01:52;10.43;;;0.40;;
8823;SDS011;4448;50.904;4.694;2022-10-16T15:04:18;0.10;;;0.10;;
8823;SDS011;4448;50.904;4.694;2022-10-16T15:06:43;0.50;;;0.50;;
8823;SDS011;4448;50.904;4.694;2022-10-16T15:09:09;0.10;;;0.10;;
8823;SDS011;4448;50.904;4.694;2022-10-16T15:11:35;0.10;;;0.10;;
8823;SDS011;4448;50.904;4.694;2022-10-16T15:14:02;0.37;;;0.37;;
8823;SDS011;4448;50.904;4.694;2022-10-16T15:16:28;0.10;;;0.10;;
8823;SDS011;4448;50.904;4.694;2022-10-16T15:18:55;0.73;;;0.73;;
8823;SDS011;4448;50.904;4.694;2022-10-16T15:21:22;0.50;;;0.50;;
8823;SDS011;4448;50.904;4.694;2022-10-16T15:23:53;0.80;;;0.80;;
8823;SDS011;4448;50.904;4.694;2022-10-16T15:26:18;0.33;;;0.33;;
8823;SDS011;4448;50.904;4.694;2022-10-16T15:28:44;6.30;;;0.93;;
8823;SDS011;4448;50.904;4.694;2022-10-16T15:31:10;1.47;;;1.33;;
8823;SDS011;4448;50.904;4.694;2022-10-16T15:33:35;0.60;;;0.60;;
8823;SDS011;4448;50.904;4.694;2022-10-16T15:36:01;0.10;;;0.10;;
8823;SDS011;4448;50.904;4.694;2022-10-16T15:38:28;0.10;;;0.10;;
8823;SDS011;4448;50.904;4.694;2022-10-16T15:40:54;0.30;;;0.30;;
8823;SDS011;4448;50.904;4.694;2022-10-16T15:43:20;0.40;;;0.40;;
8823;SDS011;4448;50.904;4.694;2022-10-16T15:45:52;0.17;;;0.17;;
8823;SDS011;4448;50.904;4.694;2022-10-16T15:48:28;0.27;;;0.27;;
8823;SDS011;4448;50.904;4.694;2022-10-16T15:50:55;0.50;;;0.50;;
8823;SDS011;4448;50.904;4.694;2022-10-16T15:53:20;0.30;;;0.30;;
8823;SDS011;4448;50.904;4.694;2022-10-16T15:55:46;0.43;;;0.43;;
8823;SDS011;4448;50.904;4.694;2022-10-16T15:58:11;0.77;;;0.77;;
8823;SDS011;4448;50.904;4.694;2022-10-16T16:00:37;0.10;;;0.10;;
8823;SDS011;4448;50.904;4.694;2022-10-16T16:03:03;0.10;;;0.10;;
8823;SDS011;4448;50.904;4.694;2022-10-16T16:05:29;0.33;;;0.33;;
8823;SDS011;4448;50.904;4.694;2022-10-16T16:07:54;0.30;;;0.30;;
8823;SDS011;4448;50.904;4.694;2022-10-16T16:10:20;0.37;;;0.37;;
8823;SDS011;4448;50.904;4.694;2022-10-16T16:12:46;0.67;;;0.50;;
8823;SDS011;4448;50.904;4.694;2022-10-16T16:15:16;0.10;;;0.10;;
8823;SDS011;4448;50.904;4.694;2022-10-16T16:17:43;0.23;;;0.17;;
8823;SDS011;4448;50.904;4.694;2022-10-16T16:20:09;0.73;;;0.30;;
8823;SDS011;4448;50.904;4.694;2022-10-16T16:22:35;0.67;;;0.67;;
8823;SDS011;4448;50.904;4.694;2022-10-16T16:25:01;0.40;;;0.40;;
8823;SDS011;4448;50.904;4.694;2022-10-16T16:27:26;0.60;;;0.60;;
8823;SDS011;4448;50.904;4.694;2022-10-16T16:29:54;3.97;;;0.47;;
8823;SDS011;4448;50.904;4.694;2022-10-16T16:32:20;0.50;;;0.50;;
8823;SDS011;4448;50.904;4.694;2022-10-16T16:34:47;0.20;;;0.20;;
8823;SDS011;4448;50.904;4.694;2022-10-16T16:37:12;0.20;;;0.20;;
8823;SDS011;4448;50.904;4.694;2022-10-16T16:39:38;0.40;;;0.40;;
8823;SDS011;4448;50.904;4.694;2022-10-16T16:42:04;0.20;;;0.20;;
8823;SDS011;4448;50.904;4.694;2022-10-16T16:44:31;0.20;;;0.20;;
8823;SDS011;4448;50.904;4.694;2022-10-16T16:46:57;0.10;;;0.10;;
8823;SDS011;4448;50.904;4.694;2022-10-16T16:49:23;0.10;;;0.10;;
8823;SDS011;4448;50.904;4.694;2022-10-16T16:51:49;0.50;;;0.50;;
8823;SDS011;4448;50.904;4.694;2022-10-16T16:54:15;0.13;;;0.13;;
8823;SDS011;4448;50.904;4.694;2022-10-16T16:56:40;0.10;;;0.10;;
8823;SDS011;4448;50.904;4.694;2022-10-16T16:59:15;0.10;;;0.10;;
8823;SDS011;4448;50.904;4.694;2022-10-16T17:01:49;0.17;;;0.17;;
8823;SDS011;4448;50.904;4.694;2022-10-16T17:04:16;0.10;;;0.10;;
8823;SDS011;4448;50.904;4.694;2022-10-16T17:06:43;0.10;;;0.10;;
8823;SDS011;4448;50.904;4.694;2022-10-16T17:09:09;0.30;;;0.30;;
8823;SDS011;4448;50.904;4.694;2022-10-16T17:11:40;0.43;;;0.43;;
8823;SDS011;4448;50.904;4.694;2022-10-16T17:14:11;0.60;;;0.60;;
8823;SDS011;4448;50.904;4.694;2022-10-16T17:16:37;2.50;;;1.43;;
8823;SDS011;4448;50.904;4.694;2022-10-16T17:19:04;0.80;;;0.80;;
8823;SDS011;4448;50.904;4.694;2022-10-16T17:21:33;0.30;;;0.30;;
8823;SDS011;4448;50.904;4.694;2022-10-16T17:24:00;0.20;;;0.20;;
8823;SDS011;4448;50.904;4.694;2022-10-16T17:26:27;0.20;;;0.20;;
8823;SDS011;4448;50.904;4.694;2022-10-16T17:28:57;3.10;;;1.33;;
8823;SDS011;4448;50.904;4.694;2022-10-16T17:31:27;0.10;;;0.10;;
8823;SDS011;4448;50.904;4.694;2022-10-16T17:33:59;1.30;;;0.97;;
8823;SDS011;4448;50.904;4.694;2022-10-16T17:36:33;0.47;;;0.47;;
8823;SDS011;4448;50.904;4.694;2022-10-16T17:39:06;4.90;;;1.70;;
8823;SDS011;4448;50.904;4.694;2022-10-16T17:41:36;0.50;;;0.50;;